Time;durP1;ratioP1;P1;durP2;ratioP2;P2;SDS_P1;SDS_P2;PMS_P1;PMS_P2;Temp;Humidity;BMP_temperature;BMP_pressure;BME280_temperature;BME280_humidity;BME280_pressure;Samples;Min_cycle;Max_cycle;Signal;HPM_P1;HPM_P2
2022/07/26 00:01:57;;;;;;;0.10;0.10;;;18.20;99.90;;;;;;5096115;28;20178;-58
2022/07/26 00:04:24;;;;;;;0.52;0.32;;;18.10;99.90;;;;;;5096025;28;20178;-59
2022/07/26 00:06:53;;;;;;;0.20;0.20;;;18.20;99.90;;;;;;5095861;28;20591;-58
2022/07/26 00:09:19;;;;;;;1.38;0.35;;;18.20;99.90;;;;;;5077875;28;20174;-59
2022/07/26 00:11:45;;;;;;;0.28;0.28;;;18.20;99.90;;;;;;5096227;28;20516;-59
2022/07/26 00:14:11;;;;;;;1.02;0.38;;;18.20;99.90;;;;;;5095979;28;20169;-59
2022/07/26 00:16:37;;;;;;;0.30;0.30;;;18.20;99.90;;;;;;5095790;28;20210;-59
2022/07/26 00:19:06;;;;;;;0.77;0.30;;;18.20;99.90;;;;;;5095749;28;20182;-59
2022/07/26 00:21:33;;;;;;;1.08;0.20;;;18.20;99.90;;;;;;5077597;28;20174;-59
2022/07/26 00:23:59;;;;;;;0.35;0.30;;;18.30;99.90;;;;;;5077317;28;20272;-59
2022/07/26 00:26:25;;;;;;;0.55;0.50;;;18.30;99.90;;;;;;5095439;28;20259;-59
2022/07/26 00:28:50;;;;;;;0.43;0.32;;;18.40;99.90;;;;;;5095450;28;20221;-59
2022/07/26 00:31:16;;;;;;;1.58;0.50;;;18.50;99.90;;;;;;5077320;28;20178;-59
2022/07/26 00:33:42;;;;;;;0.77;0.38;;;18.50;99.90;;;;;;5095397;28;20261;-59
2022/07/26 00:36:08;;;;;;;0.85;0.50;;;18.50;99.90;;;;;;5095306;28;20320;-59
2022/07/26 00:38:37;;;;;;;0.47;0.35;;;18.40;99.90;;;;;;5095091;28;20522;-59
2022/07/26 00:41:03;;;;;;;1.75;0.70;;;18.40;99.90;;;;;;5095400;28;20658;-59
2022/07/26 00:43:29;;;;;;;0.30;0.30;;;18.50;99.90;;;;;;5095320;28;20178;-59
2022/07/26 00:45:56;;;;;;;0.43;0.30;;;18.50;99.90;;;;;;5095170;28;20269;-59
2022/07/26 00:48:22;;;;;;;0.43;0.43;;;18.50;99.90;;;;;;5077069;28;20173;-61
2022/07/26 00:50:48;;;;;;;0.47;0.47;;;18.50;99.90;;;;;;5094946;28;20575;-59
2022/07/26 00:53:13;;;;;;;0.38;0.35;;;18.60;99.90;;;;;;5094575;28;20208;-59
2022/07/26 00:55:43;;;;;;;0.43;0.40;;;18.60;99.90;;;;;;5077102;28;20256;-59
2022/07/26 00:58:08;;;;;;;1.00;0.45;;;18.70;99.90;;;;;;5094847;28;20680;-59
2022/07/26 01:00:34;;;;;;;0.40;0.40;;;18.70;99.90;;;;;;5094759;28;20174;-59
2022/07/26 01:03:00;;;;;;;0.85;0.32;;;18.60;99.90;;;;;;5076799;28;20227;-59
2022/07/26 01:05:29;;;;;;;0.50;0.30;;;18.70;99.90;;;;;;5094711;28;20170;-59
2022/07/26 01:07:58;;;;;;;0.40;0.40;;;18.60;99.90;;;;;;5076646;28;20219;-59
2022/07/26 01:10:24;;;;;;;0.40;0.40;;;18.60;99.90;;;;;;5094644;28;20276;-59
2022/07/26 01:12:50;;;;;;;0.57;0.35;;;18.70;99.90;;;;;;5094589;28;20261;-59
2022/07/26 01:15:17;;;;;;;0.73;0.73;;;18.70;99.90;;;;;;5076473;28;20182;-61
2022/07/26 01:17:43;;;;;;;0.90;0.35;;;18.70;99.90;;;;;;5094457;28;20201;-60
2022/07/26 01:20:13;;;;;;;2.22;1.08;;;18.70;99.90;;;;;;5094399;28;20252;-62
2022/07/26 01:22:39;;;;;;;1.98;0.70;;;18.70;99.90;;;;;;5094431;28;20519;-59
2022/07/26 01:25:06;;;;;;;0.40;0.30;;;18.70;99.90;;;;;;5094531;28;20177;-59
2022/07/26 01:27:38;;;;;;;0.73;0.45;;;18.70;99.90;;;;;;5094402;28;20546;-59
2022/07/26 01:30:06;;;;;;;1.27;0.30;;;18.70;99.90;;;;;;5077111;28;20215;-59
2022/07/26 01:32:32;;;;;;;0.32;0.32;;;18.70;99.90;;;;;;5094240;28;20177;-60
2022/07/26 01:34:58;;;;;;;0.70;0.70;;;18.50;99.90;;;;;;5075884;28;20178;-59
2022/07/26 01:37:23;;;;;;;1.02;0.50;;;18.50;99.90;;;;;;5093959;28;20217;-59
2022/07/26 01:39:49;;;;;;;2.15;0.47;;;18.60;99.90;;;;;;5075951;28;20181;-58
2022/07/26 01:42:15;;;;;;;1.08;0.30;;;18.50;99.90;;;;;;5094204;28;20252;-59
2022/07/26 01:44:40;;;;;;;2.05;0.43;;;18.50;99.90;;;;;;5093938;28;20231;-59
2022/07/26 01:47:09;;;;;;;0.50;0.30;;;18.60;99.90;;;;;;5093890;28;20239;-59
2022/07/26 01:49:34;;;;;;;0.95;0.70;;;18.60;99.90;;;;;;5075589;28;20243;-59
2022/07/26 01:52:00;;;;;;;0.98;0.50;;;18.50;99.90;;;;;;5075865;28;20178;-59
2022/07/26 01:54:26;;;;;;;0.60;0.30;;;18.50;99.90;;;;;;5075860;28;20243;-59
2022/07/26 01:56:52;;;;;;;0.32;0.30;;;18.50;99.90;;;;;;5093895;28;20213;-59
2022/07/26 01:59:20;;;;;;;0.57;0.45;;;18.60;99.90;;;;;;5076104;28;20202;-59
2022/07/26 02:01:45;;;;;;;0.85;0.45;;;18.60;99.90;;;;;;5059387;28;20170;-59
2022/07/26 02:04:57;;;;;;;0.57;0.43;;;18.60;99.90;;;;;;5074896;28;20645;-59
2022/07/26 02:06:57;;;;;;;0.47;0.47;;;18.60;99.90;;;;;;5078322;28;20228;-59
2022/07/26 02:09:22;;;;;;;2.00;0.70;;;18.60;99.90;;;;;;5075637;28;20201;-59
2022/07/26 02:11:48;;;;;;;0.73;0.43;;;18.60;99.90;;;;;;5093672;28;20177;-59
2022/07/26 02:14:14;;;;;;;0.50;0.50;;;18.60;99.90;;;;;;5075483;28;20177;-59
2022/07/26 02:16:39;;;;;;;0.88;0.55;;;18.60;99.90;;;;;;5093512;28;20198;-59
2022/07/26 02:19:05;;;;;;;0.63;0.40;;;18.60;99.90;;;;;;5075534;28;20177;-59
2022/07/26 02:21:31;;;;;;;0.65;0.30;;;18.60;99.90;;;;;;5058977;28;20256;-59
2022/07/26 02:23:57;;;;;;;1.55;0.73;;;18.70;99.90;;;;;;5093573;28;20655;-59
2022/07/26 02:26:22;;;;;;;1.63;0.43;;;18.70;99.90;;;;;;5093479;28;20180;-59
2022/07/26 02:28:48;;;;;;;0.32;0.32;;;18.70;99.90;;;;;;5075368;28;20523;-59
2022/07/26 02:31:14;;;;;;;0.70;0.65;;;18.70;99.90;;;;;;5093289;28;20174;-59
2022/07/26 02:33:39;;;;;;;0.70;0.70;;;18.70;99.90;;;;;;5058816;28;20185;-59
2022/07/26 02:36:05;;;;;;;0.70;0.50;;;18.70;99.90;;;;;;5075060;28;20218;-59
2022/07/26 02:38:31;;;;;;;0.52;0.52;;;18.70;99.90;;;;;;5093465;28;20200;-59
2022/07/26 02:40:56;;;;;;;2.42;0.60;;;18.70;99.90;;;;;;5093267;28;20547;-59
2022/07/26 02:43:22;;;;;;;1.42;0.60;;;18.60;99.90;;;;;;5058568;28;20177;-59
2022/07/26 02:45:48;;;;;;;1.20;0.50;;;18.60;99.90;;;;;;5093158;28;20181;-59
2022/07/26 02:48:16;;;;;;;1.17;1.00;;;18.60;99.90;;;;;;5093149;28;20174;-59
2022/07/26 02:50:41;;;;;;;1.08;0.47;;;18.60;99.90;;;;;;5093343;28;20173;-59
2022/07/26 02:53:07;;;;;;;0.57;0.40;;;18.70;99.90;;;;;;5093206;28;20711;-59
2022/07/26 02:55:33;;;;;;;0.45;0.45;;;18.70;99.90;;;;;;5092989;28;20170;-60
2022/07/26 02:57:58;;;;;;;0.45;0.30;;;18.70;99.90;;;;;;5093130;28;20177;-60
2022/07/26 03:00:25;;;;;;;1.55;0.63;;;18.70;99.90;;;;;;5093010;28;20253;-59
2022/07/26 03:02:51;;;;;;;0.82;0.70;;;18.60;99.90;;;;;;5093283;28;20177;-59
2022/07/26 03:05:18;;;;;;;0.80;0.50;;;18.70;99.90;;;;;;5093001;28;20166;-59
2022/07/26 03:07:47;;;;;;;0.77;0.60;;;18.60;99.90;;;;;;5093052;28;20216;-59
2022/07/26 03:10:13;;;;;;;0.88;0.50;;;18.60;99.90;;;;;;5092977;28;20189;-59
2022/07/26 03:12:42;;;;;;;2.65;0.80;;;18.60;99.90;;;;;;5075262;28;20173;-59
2022/07/26 03:15:11;;;;;;;0.93;0.50;;;18.60;99.90;;;;;;5074987;28;20174;-59
2022/07/26 03:17:38;;;;;;;1.00;0.45;;;18.60;99.90;;;;;;5096727;28;20608;-58
2022/07/26 03:20:05;;;;;;;0.70;0.65;;;18.60;99.90;;;;;;5078602;28;20627;-59
2022/07/26 03:22:31;;;;;;;0.80;0.60;;;18.60;99.90;;;;;;5078179;28;20651;-59
2022/07/26 03:24:57;;;;;;;1.55;0.70;;;18.60;99.90;;;;;;5096767;28;20178;-59
2022/07/26 03:27:23;;;;;;;0.50;0.50;;;18.60;99.90;;;;;;5096566;28;20550;-59
2022/07/26 03:29:52;;;;;;;0.70;0.57;;;18.60;99.90;;;;;;5078667;28;20178;-60
2022/07/26 03:32:17;;;;;;;1.27;0.82;;;18.50;99.90;;;;;;5096677;28;20227;-60
2022/07/26 03:34:46;;;;;;;0.93;0.70;;;18.50;99.90;;;;;;5096790;28;20177;-60
2022/07/26 03:37:12;;;;;;;1.20;0.90;;;18.50;99.90;;;;;;5078882;28;20205;-60
2022/07/26 03:39:37;;;;;;;2.47;1.35;;;18.40;99.90;;;;;;5078401;28;20181;-59
2022/07/26 03:42:04;;;;;;;0.55;0.52;;;18.40;99.90;;;;;;5096299;28;20166;-61
2022/07/26 03:44:29;;;;;;;1.13;0.90;;;18.40;99.90;;;;;;5096311;28;20615;-59
2022/07/26 03:46:55;;;;;;;1.75;0.75;;;18.40;99.90;;;;;;5078233;28;20186;-60
2022/07/26 03:49:21;;;;;;;1.08;0.90;;;18.40;99.90;;;;;;5096301;28;20205;-60
2022/07/26 03:51:46;;;;;;;0.88;0.80;;;18.30;99.90;;;;;;5096170;28;20177;-59
2022/07/26 03:54:12;;;;;;;0.93;0.50;;;18.40;99.90;;;;;;5096211;28;20180;-59
2022/07/26 03:56:39;;;;;;;0.73;0.57;;;18.40;99.90;;;;;;5077926;28;20205;-59
2022/07/26 03:59:07;;;;;;;1.67;0.70;;;18.40;99.90;;;;;;5096266;28;20194;-59
2022/07/26 04:01:33;;;;;;;1.48;1.00;;;18.40;99.90;;;;;;5095959;28;20162;-59
2022/07/26 04:04:00;;;;;;;1.00;0.75;;;18.30;99.90;;;;;;5096131;28;20249;-60
2022/07/26 04:06:26;;;;;;;1.20;1.02;;;18.30;99.90;;;;;;5095986;28;20182;-59
2022/07/26 04:08:52;;;;;;;1.30;1.00;;;18.30;99.90;;;;;;5077794;28;20186;-59
2022/07/26 04:11:18;;;;;;;3.60;0.90;;;18.30;99.90;;;;;;5095623;28;20208;-60
2022/07/26 04:13:44;;;;;;;1.85;0.70;;;18.30;99.90;;;;;;5077962;28;20625;-59
2022/07/26 04:16:10;;;;;;;0.80;0.68;;;18.30;99.90;;;;;;5061058;28;20221;-59
2022/07/26 04:18:41;;;;;;;2.53;1.00;;;18.30;99.90;;;;;;5095651;28;20261;-59
2022/07/26 04:21:06;;;;;;;1.25;0.80;;;18.20;99.90;;;;;;5095651;28;20212;-60
2022/07/26 04:23:32;;;;;;;0.95;0.63;;;18.30;99.90;;;;;;5095524;28;20210;-60
2022/07/26 04:25:58;;;;;;;2.30;0.93;;;18.20;99.90;;;;;;5077585;28;20178;-59
2022/07/26 04:28:27;;;;;;;1.05;0.60;;;18.30;99.90;;;;;;5094751;28;20174;-59
2022/07/26 04:30:53;;;;;;;0.88;0.80;;;18.20;99.90;;;;;;5095503;28;20186;-59
2022/07/26 04:33:19;;;;;;;1.33;1.23;;;18.20;99.90;;;;;;5060783;28;20177;-60
2022/07/26 04:35:45;;;;;;;0.90;0.52;;;18.20;99.90;;;;;;5095292;28;20170;-59
2022/07/26 04:38:10;;;;;;;1.50;0.80;;;18.30;99.90;;;;;;5060412;28;20174;-60
2022/07/26 04:40:36;;;;;;;2.50;1.38;;;18.30;99.90;;;;;;5060593;28;20221;-59
2022/07/26 04:43:03;;;;;;;0.75;0.70;;;18.30;99.90;;;;;;5077266;28;20181;-59
2022/07/26 04:45:29;;;;;;;0.70;0.70;;;18.40;99.90;;;;;;5095182;28;20659;-59
2022/07/26 04:47:56;;;;;;;2.78;1.10;;;18.40;99.90;;;;;;5095121;28;20181;-59
2022/07/26 04:50:22;;;;;;;0.52;0.50;;;18.40;99.90;;;;;;5095172;28;20174;-59
2022/07/26 04:52:50;;;;;;;2.13;0.80;;;18.30;99.90;;;;;;5095274;28;20174;-59
2022/07/26 04:55:16;;;;;;;0.77;0.77;;;18.30;99.90;;;;;;5094947;28;20691;-59
2022/07/26 04:57:42;;;;;;;1.30;0.77;;;18.20;99.90;;;;;;5094966;28;20293;-59
2022/07/26 05:00:10;;;;;;;1.30;0.93;;;18.20;99.90;;;;;;5094913;28;20261;-60
2022/07/26 05:02:37;;;;;;;2.05;0.73;;;18.20;99.90;;;;;;5094861;28;20169;-60
2022/07/26 05:05:04;;;;;;;1.77;0.80;;;18.10;99.90;;;;;;5094771;28;20170;-60
2022/07/26 05:07:43;;;;;;;1.52;0.60;;;18.10;99.90;;;;;;5094563;28;20181;-59
2022/07/26 05:10:12;;;;;;;0.70;0.70;;;18.10;99.90;;;;;;5093873;28;20284;-60
2022/07/26 05:12:38;;;;;;;1.38;0.88;;;18.20;99.90;;;;;;5094725;28;20173;-59
2022/07/26 05:15:04;;;;;;;0.98;0.98;;;18.20;99.90;;;;;;5094977;28;20223;-59
2022/07/26 05:17:30;;;;;;;0.80;0.70;;;18.20;99.90;;;;;;5094416;28;20212;-59
2022/07/26 05:19:56;;;;;;;0.80;0.70;;;18.20;99.90;;;;;;5094408;28;20181;-60
2022/07/26 05:22:22;;;;;;;2.67;0.80;;;18.30;99.90;;;;;;5094559;28;20204;-59
2022/07/26 05:24:47;;;;;;;1.00;0.82;;;18.30;99.90;;;;;;5094364;28;20178;-60
2022/07/26 05:27:13;;;;;;;2.05;1.25;;;18.40;99.90;;;;;;5094296;28;20178;-59
2022/07/26 05:29:39;;;;;;;1.58;1.00;;;18.50;99.90;;;;;;5094234;28;20174;-59
2022/07/26 05:32:05;;;;;;;1.17;0.68;;;18.60;99.90;;;;;;5094369;28;20208;-59
2022/07/26 05:34:30;;;;;;;1.27;0.70;;;18.70;99.90;;;;;;5094140;28;20585;-59
2022/07/26 05:36:56;;;;;;;1.30;0.70;;;18.80;99.90;;;;;;5094103;28;20206;-60
2022/07/26 05:39:22;;;;;;;1.23;1.13;;;18.80;99.90;;;;;;5093098;28;20185;-60
2022/07/26 05:41:47;;;;;;;1.40;1.02;;;18.80;99.90;;;;;;5059295;28;20650;-59
2022/07/26 05:44:14;;;;;;;1.38;1.23;;;18.90;99.90;;;;;;5094054;28;20242;-60
2022/07/26 05:46:40;;;;;;;1.88;1.13;;;18.90;99.90;;;;;;5093835;28;20186;-60
2022/07/26 05:49:06;;;;;;;0.55;0.55;;;18.90;99.90;;;;;;5093805;28;20177;-60
2022/07/26 05:51:32;;;;;;;1.08;0.80;;;18.90;99.90;;;;;;5094254;28;20178;-59
2022/07/26 05:53:58;;;;;;;0.80;0.80;;;18.90;99.90;;;;;;5093716;28;20223;-59
2022/07/26 05:56:24;;;;;;;0.52;0.50;;;19.00;99.90;;;;;;5093799;28;20201;-59
2022/07/26 05:58:53;;;;;;;0.80;0.55;;;19.10;99.90;;;;;;5093715;28;20202;-59
2022/07/26 06:01:18;;;;;;;0.73;0.57;;;19.10;99.90;;;;;;5089107;28;20182;-59
2022/07/26 06:03:44;;;;;;;1.73;0.60;;;19.20;99.90;;;;;;5092413;28;20526;-59
2022/07/26 06:06:10;;;;;;;0.68;0.60;;;19.30;99.90;;;;;;5092035;28;20227;-59
2022/07/26 06:08:36;;;;;;;0.60;0.60;;;19.40;99.90;;;;;;5093322;28;20179;-59
2022/07/26 06:11:02;;;;;;;2.22;0.90;;;19.50;99.90;;;;;;5092891;28;20185;-59
2022/07/26 06:13:28;;;;;;;1.65;0.77;;;19.70;99.90;;;;;;5093427;28;20532;-60
2022/07/26 06:15:53;;;;;;;0.52;0.52;;;19.80;99.90;;;;;;5075251;28;20258;-59
2022/07/26 06:18:19;;;;;;;2.20;0.90;;;19.80;99.90;;;;;;5093363;28;20535;-60
2022/07/26 06:20:46;;;;;;;0.60;0.60;;;19.70;99.90;;;;;;5093765;28;20174;-59
2022/07/26 06:23:13;;;;;;;1.20;0.57;;;19.80;99.90;;;;;;5075201;28;20189;-60
2022/07/26 06:25:39;;;;;;;0.63;0.63;;;19.70;99.90;;;;;;5075284;28;20520;-59
2022/07/26 06:28:07;;;;;;;0.63;0.63;;;19.70;99.90;;;;;;5093538;28;20176;-61
2022/07/26 06:30:33;;;;;;;0.73;0.70;;;19.70;99.90;;;;;;5092999;28;20538;-60
2022/07/26 06:32:59;;;;;;;0.63;0.57;;;19.60;99.90;;;;;;5093235;28;20223;-59
2022/07/26 06:35:29;;;;;;;0.68;0.60;;;19.70;99.90;;;;;;5075357;28;20178;-59
2022/07/26 06:37:56;;;;;;;0.40;0.40;;;19.80;99.90;;;;;;5093201;28;20633;-61
2022/07/26 06:40:22;;;;;;;0.88;0.60;;;19.80;99.90;;;;;;5093344;28;20178;-61
2022/07/26 06:42:48;;;;;;;0.63;0.60;;;19.80;99.90;;;;;;5093148;28;20178;-59
2022/07/26 06:45:14;;;;;;;1.65;0.57;;;19.80;99.90;;;;;;5075176;28;20186;-58
2022/07/26 06:47:39;;;;;;;0.95;0.40;;;19.80;99.90;;;;;;5075110;28;20184;-58
2022/07/26 06:50:06;;;;;;;0.50;0.50;;;19.90;99.90;;;;;;5093098;28;20269;-59
2022/07/26 06:52:31;;;;;;;1.85;0.85;;;20.00;99.90;;;;;;5096728;28;20235;-59
2022/07/26 06:54:58;;;;;;;1.10;0.50;;;20.00;99.90;;;;;;5097110;28;20166;-59
2022/07/26 06:57:25;;;;;;;0.38;0.38;;;20.00;99.90;;;;;;5096938;28;20570;-59
2022/07/26 06:59:51;;;;;;;0.60;0.60;;;20.20;99.90;;;;;;5094745;28;20174;-58
2022/07/26 07:02:16;;;;;;;0.63;0.63;;;20.20;99.90;;;;;;5091389;28;20197;-58
2022/07/26 07:04:42;;;;;;;1.30;0.60;;;20.10;99.90;;;;;;5096979;28;20173;-59
2022/07/26 07:07:08;;;;;;;0.50;0.50;;;20.00;99.90;;;;;;5096937;28;20181;-59
2022/07/26 07:09:34;;;;;;;0.57;0.43;;;20.10;99.90;;;;;;5096875;28;20174;-59
2022/07/26 07:12:05;;;;;;;1.40;0.93;;;20.10;99.90;;;;;;5096602;28;20230;-58
2022/07/26 07:14:31;;;;;;;1.35;0.45;;;20.10;99.90;;;;;;5096424;28;20177;-60
2022/07/26 07:16:57;;;;;;;0.50;0.50;;;20.10;99.90;;;;;;5096697;28;20210;-58
2022/07/26 07:19:23;;;;;;;0.70;0.40;;;20.20;99.90;;;;;;5079271;28;20174;-61
2022/07/26 07:21:49;;;;;;;0.40;0.40;;;20.10;99.90;;;;;;5096604;28;20261;-58
2022/07/26 07:24:15;;;;;;;0.52;0.30;;;20.10;99.90;;;;;;5078502;28;20244;-58
2022/07/26 07:26:41;;;;;;;0.63;0.50;;;20.10;99.90;;;;;;5078391;28;20181;-59
2022/07/26 07:29:13;;;;;;;0.32;0.32;;;20.10;99.90;;;;;;5078331;28;20538;-59
2022/07/26 07:31:44;;;;;;;0.30;0.30;;;20.00;99.90;;;;;;5095172;28;20178;-58
2022/07/26 07:34:09;;;;;;;0.28;0.28;;;20.10;99.90;;;;;;5096768;28;20166;-59
2022/07/26 07:36:35;;;;;;;0.63;0.30;;;20.10;99.90;;;;;;5096432;28;20569;-58
2022/07/26 07:39:01;;;;;;;0.30;0.30;;;20.20;99.90;;;;;;5061954;28;20256;-58
2022/07/26 07:41:27;;;;;;;0.40;0.40;;;20.20;99.90;;;;;;5096381;28;20635;-58
2022/07/26 07:43:53;;;;;;;0.57;0.57;;;20.40;99.90;;;;;;5078631;28;20189;-59
2022/07/26 07:46:18;;;;;;;0.47;0.40;;;20.30;99.90;;;;;;5096409;28;20170;-58
2022/07/26 07:48:44;;;;;;;1.55;0.40;;;20.40;99.90;;;;;;5096403;28;20234;-58
2022/07/26 07:51:10;;;;;;;0.75;0.40;;;20.40;99.90;;;;;;5077521;28;20206;-59
2022/07/26 07:53:35;;;;;;;1.00;0.30;;;20.50;99.90;;;;;;5096272;28;20177;-58
2022/07/26 07:56:01;;;;;;;1.52;0.50;;;20.60;99.90;;;;;;5095945;28;20663;-58
2022/07/26 07:58:27;;;;;;;0.40;0.40;;;21.00;99.90;;;;;;5096358;28;20174;-59
2022/07/26 08:00:53;;;;;;;0.68;0.60;;;21.00;99.90;;;;;;5096057;28;20184;-59
2022/07/26 08:03:19;;;;;;;0.73;0.50;;;21.10;99.90;;;;;;5077191;28;20253;-59
2022/07/26 08:05:48;;;;;;;0.57;0.50;;;21.00;99.90;;;;;;5096137;28;20178;-59
2022/07/26 08:08:15;;;;;;;1.00;0.80;;;21.00;99.90;;;;;;5095868;28;20177;-58
2022/07/26 08:10:41;;;;;;;0.60;0.60;;;20.80;99.90;;;;;;5095893;28;20223;-58
2022/07/26 08:13:07;;;;;;;0.90;0.77;;;21.00;99.90;;;;;;5078334;28;20200;-59
2022/07/26 08:15:33;;;;;;;1.15;0.68;;;21.40;99.90;;;;;;5095975;28;20185;-59
2022/07/26 08:17:58;;;;;;;0.85;0.85;;;21.60;99.90;;;;;;5095657;28;20304;-59
2022/07/26 08:20:24;;;;;;;1.52;0.73;;;21.60;99.90;;;;;;5095749;28;20531;-59
2022/07/26 08:22:50;;;;;;;1.35;1.20;;;21.60;99.90;;;;;;5095599;28;20585;-58
2022/07/26 08:25:16;;;;;;;1.17;1.05;;;21.70;99.90;;;;;;5095516;28;20225;-59
2022/07/26 08:27:41;;;;;;;2.15;1.05;;;21.70;99.90;;;;;;5077475;28;20627;-59
2022/07/26 08:30:08;;;;;;;1.80;1.33;;;21.70;99.90;;;;;;5095572;28;20189;-59
2022/07/26 08:32:33;;;;;;;1.40;1.30;;;22.00;99.90;;;;;;5095704;28;20534;-59
2022/07/26 08:34:59;;;;;;;2.15;0.98;;;22.50;99.90;;;;;;5077230;28;20170;-58
2022/07/26 08:37:24;;;;;;;1.17;0.80;;;22.70;99.90;;;;;;5095222;28;20666;-59
2022/07/26 08:39:50;;;;;;;1.20;1.10;;;22.80;99.90;;;;;;5077106;28;20227;-59
2022/07/26 08:42:18;;;;;;;1.15;1.05;;;22.80;99.90;;;;;;5095462;28;20171;-59
2022/07/26 08:44:45;;;;;;;1.38;1.13;;;22.80;99.90;;;;;;5095351;28;20170;-59
2022/07/26 08:47:16;;;;;;;1.23;1.00;;;22.80;99.90;;;;;;5095014;28;20174;-59
2022/07/26 08:49:43;;;;;;;1.77;1.23;;;22.90;99.90;;;;;;5095063;28;20564;-59
2022/07/26 08:52:10;;;;;;;1.40;1.08;;;22.90;99.90;;;;;;5094999;28;20227;-59
2022/07/26 08:54:36;;;;;;;3.58;1.52;;;22.60;99.90;;;;;;5077154;28;20217;-58
2022/07/26 08:57:02;;;;;;;1.30;1.20;;;22.30;99.90;;;;;;5095097;28;20231;-58
2022/07/26 08:59:29;;;;;;;2.28;1.63;;;22.10;99.90;;;;;;5076821;28;20634;-59
2022/07/26 09:02:01;;;;;;;2.13;1.95;;;22.10;99.90;;;;;;5077122;28;20217;-59
2022/07/26 09:04:45;;;;;;;2.08;1.88;;;22.10;99.90;;;;;;5094794;28;20197;-58
2022/07/26 09:07:18;;;;;;;1.67;1.50;;;22.00;99.90;;;;;;5076654;28;20178;-56
2022/07/26 09:09:59;;;;;;;1.75;1.45;;;22.00;99.90;;;;;;5094818;28;20197;-58
2022/07/26 09:12:27;;;;;;;1.52;1.42;;;22.10;99.90;;;;;;5094514;28;20170;-58
2022/07/26 09:14:54;;;;;;;1.55;1.40;;;22.30;99.90;;;;;;5094366;28;20174;-59
2022/07/26 09:17:22;;;;;;;2.15;1.00;;;22.20;99.90;;;;;;5094421;28;20197;-58
2022/07/26 09:20:16;;;;;;;2.22;0.93;;;22.00;99.90;;;;;;5076318;28;20197;-58
2022/07/26 09:23:06;;;;;;;0.70;0.70;;;21.80;99.90;;;;;;5094656;28;20600;-59
2022/07/26 09:25:38;;;;;;;0.90;0.75;;;21.80;99.90;;;;;;5076314;28;20638;-59
2022/07/26 09:28:28;;;;;;;1.08;0.60;;;21.80;99.90;;;;;;5094616;28;20177;-59
2022/07/26 09:30:56;;;;;;;0.50;0.50;;;21.70;99.90;;;;;;5094383;28;20713;-59
2022/07/26 09:33:22;;;;;;;1.75;0.68;;;21.60;99.90;;;;;;5094249;28;20170;-59
2022/07/26 09:36:04;;;;;;;0.70;0.50;;;21.40;99.90;;;;;;5094161;28;20192;-58
2022/07/26 09:38:50;;;;;;;0.52;0.43;;;21.00;99.90;;;;;;5076244;28;20639;-59
2022/07/26 09:41:20;;;;;;;0.45;0.45;;;20.70;99.90;;;;;;5094273;28;20182;-59
2022/07/26 09:43:46;;;;;;;0.30;0.30;;;20.30;99.90;;;;;;5094094;28;20166;-59
2022/07/26 09:46:12;;;;;;;0.38;0.38;;;20.20;99.90;;;;;;5076010;28;20238;-58
2022/07/26 09:48:38;;;;;;;0.52;0.13;;;20.00;99.90;;;;;;5075975;28;20227;-59
2022/07/26 09:51:05;;;;;;;0.30;0.30;;;19.90;99.90;;;;;;5094127;28;20634;-59
2022/07/26 09:53:42;;;;;;;0.13;0.13;;;19.80;99.90;;;;;;5094211;28;20178;-59
2022/07/26 09:56:08;;;;;;;0.10;0.10;;;19.90;99.90;;;;;;5093979;28;20193;-60
2022/07/26 09:58:35;;;;;;;0.28;0.28;;;20.00;99.90;;;;;;5075679;28;20186;-59
2022/07/26 10:01:02;;;;;;;0.17;0.17;;;20.10;99.90;;;;;;5093736;28;20170;-59
2022/07/26 10:03:31;;;;;;;0.20;0.20;;;20.30;99.90;;;;;;5093629;28;20261;-59
2022/07/26 10:05:57;;;;;;;0.20;0.20;;;20.70;99.90;;;;;;5093755;28;20166;-59
2022/07/26 10:08:23;;;;;;;0.10;0.10;;;21.20;99.90;;;;;;5075520;28;20192;-58
2022/07/26 10:11:00;;;;;;;0.20;0.20;;;21.60;99.90;;;;;;5059158;28;20193;-58
2022/07/26 10:13:26;;;;;;;0.10;0.10;;;22.00;99.90;;;;;;5093668;28;20172;-59
2022/07/26 10:15:55;;;;;;;0.20;0.20;;;22.40;99.90;;;;;;5093782;28;20174;-59
2022/07/26 10:18:35;;;;;;;0.17;0.17;;;22.50;99.90;;;;;;5093768;28;20176;-59
2022/07/26 10:21:25;;;;;;;0.22;0.22;;;22.50;99.90;;;;;;5093561;28;20174;-58
2022/07/26 10:23:59;;;;;;;0.50;0.20;;;22.30;99.90;;;;;;5093481;28;20262;-57
2022/07/26 10:26:31;;;;;;;0.10;0.10;;;22.00;99.90;;;;;;5075119;28;20208;-58
2022/07/26 10:29:25;;;;;;;0.10;0.10;;;21.70;99.90;;;;;;5093385;28;20677;-59
2022/07/26 10:31:59;;;;;;;0.20;0.20;;;21.30;99.90;;;;;;5089833;28;20186;-58
2022/07/26 10:34:38;;;;;;;0.10;0.10;;;20.90;99.90;;;;;;5093313;28;20701;-59
2022/07/26 10:37:23;;;;;;;0.10;0.10;;;20.40;99.90;;;;;;5093295;28;20243;-59
2022/07/26 10:39:53;;;;;;;0.10;0.10;;;20.30;99.90;;;;;;5093511;28;20550;-59
2022/07/26 10:42:18;;;;;;;0.25;0.20;;;20.10;99.90;;;;;;5092946;28;20170;-59
2022/07/26 10:44:44;;;;;;;0.20;0.17;;;19.70;99.90;;;;;;5075283;28;20178;-59
2022/07/26 10:47:17;;;;;;;0.10;0.10;;;19.60;99.90;;;;;;5093170;28;20170;-59
2022/07/26 10:49:58;;;;;;;0.20;0.10;;;19.40;99.90;;;;;;5075312;28;20204;-58
2022/07/26 10:52:28;;;;;;;0.17;0.17;;;19.30;99.90;;;;;;5093170;28;20180;-58
2022/07/26 10:55:02;;;;;;;0.00;0.00;;;19.10;99.90;;;;;;5093261;28;20480;-59
2022/07/26 10:57:30;;;;;;;0.00;0.00;;;18.90;99.90;;;;;;5074430;28;20198;-59
2022/07/26 10:59:57;;;;;;;0.20;0.20;;;18.60;99.90;;;;;;5093317;28;20178;-59
2022/07/26 11:02:31;;;;;;;0.10;0.10;;;18.30;99.90;;;;;;5093250;28;20294;-58
2022/07/26 11:05:11;;;;;;;0.10;0.10;;;18.30;99.90;;;;;;5093210;28;20182;-59
2022/07/26 11:07:50;;;;;;;0.08;0.08;;;18.30;99.90;;;;;;5093089;28;20172;-59
2022/07/26 11:10:20;;;;;;;0.17;0.10;;;18.20;99.90;;;;;;5093141;28;20189;-59
2022/07/26 11:12:46;;;;;;;0.20;0.20;;;18.20;99.90;;;;;;5093230;28;20178;-59
2022/07/26 11:15:18;;;;;;;0.10;0.10;;;18.30;99.90;;;;;;5075139;28;20527;-58
2022/07/26 11:17:44;;;;;;;0.32;0.22;;;18.30;99.90;;;;;;5092982;28;20217;-58
2022/07/26 11:20:10;;;;;;;1.55;0.47;;;18.20;99.90;;;;;;5092941;28;20178;-58
2022/07/26 11:22:35;;;;;;;0.10;0.10;;;18.20;99.90;;;;;;5092892;28;20174;-58
2022/07/26 11:25:05;;;;;;;0.22;0.22;;;18.30;99.90;;;;;;5058255;28;20508;-58
2022/07/26 11:27:31;;;;;;;0.20;0.10;;;18.40;99.90;;;;;;5074903;28;20370;-59
2022/07/26 11:30:04;;;;;;;0.20;0.20;;;18.40;99.90;;;;;;5058181;28;20709;-59
2022/07/26 11:32:29;;;;;;;0.35;0.35;;;18.50;99.90;;;;;;5092880;28;20174;-58
2022/07/26 11:35:00;;;;;;;0.30;0.30;;;18.70;99.90;;;;;;5074768;28;20174;-57
2022/07/26 11:37:26;;;;;;;0.82;0.28;;;18.80;99.90;;;;;;5094140;28;20316;-57
2022/07/26 11:39:53;;;;;;;0.17;0.17;;;19.00;99.90;;;;;;5096659;28;20220;-58
2022/07/26 11:42:20;;;;;;;0.32;0.32;;;18.90;99.90;;;;;;5096390;28;20174;-57
2022/07/26 11:44:47;;;;;;;0.22;0.22;;;18.80;99.90;;;;;;5096354;28;20186;-58
2022/07/26 11:47:21;;;;;;;0.30;0.30;;;19.00;99.90;;;;;;5096859;28;20256;-57
2022/07/26 11:49:48;;;;;;;0.80;0.80;;;19.20;99.90;;;;;;5096258;28;20622;-57
2022/07/26 11:52:14;;;;;;;0.40;0.40;;;19.30;99.90;;;;;;5096404;28;20205;-57
2022/07/26 11:54:46;;;;;;;0.40;0.40;;;19.30;99.90;;;;;;5095423;28;20196;-58
2022/07/26 11:57:12;;;;;;;0.28;0.28;;;19.20;99.90;;;;;;5096397;28;20685;-58
2022/07/26 11:59:39;;;;;;;0.65;0.43;;;19.20;99.90;;;;;;5096099;28;20174;-58
2022/07/26 12:02:07;;;;;;;0.20;0.20;;;19.20;99.90;;;;;;5061301;28;20185;-58
2022/07/26 12:04:39;;;;;;;1.02;0.30;;;19.20;99.90;;;;;;5078205;28;20161;-58
2022/07/26 12:07:16;;;;;;;0.50;0.40;;;19.10;99.90;;;;;;5096118;28;20174;-58
2022/07/26 12:09:51;;;;;;;0.90;0.50;;;19.00;99.90;;;;;;5077861;28;20268;-58
2022/07/26 12:12:27;;;;;;;0.40;0.40;;;18.90;99.90;;;;;;5095783;28;20542;-57
2022/07/26 12:15:06;;;;;;;0.20;0.20;;;18.80;99.90;;;;;;5095993;28;20298;-57
2022/07/26 12:17:33;;;;;;;0.98;0.40;;;18.70;99.90;;;;;;5095641;28;20209;-58
2022/07/26 12:20:22;;;;;;;0.30;0.30;;;18.60;99.90;;;;;;5095675;28;20178;-57
2022/07/26 12:23:04;;;;;;;0.50;0.50;;;18.60;99.90;;;;;;5095512;28;20186;-58
2022/07/26 12:25:31;;;;;;;0.40;0.40;;;18.50;99.90;;;;;;5079041;28;20219;-57
2022/07/26 12:27:57;;;;;;;0.30;0.30;;;18.50;99.90;;;;;;5095613;28;20265;-58
2022/07/26 12:30:24;;;;;;;0.52;0.52;;;18.50;99.90;;;;;;5095588;28;20174;-56
2022/07/26 12:32:54;;;;;;;0.40;0.40;;;18.50;99.90;;;;;;5095425;28;20177;-58
2022/07/26 12:35:32;;;;;;;0.65;0.52;;;18.40;99.90;;;;;;5077924;28;20627;-58
2022/07/26 12:37:58;;;;;;;0.40;0.40;;;18.50;99.90;;;;;;5095443;28;20292;-58
2022/07/26 12:40:26;;;;;;;0.55;0.52;;;18.30;99.90;;;;;;5077373;28;20174;-58
2022/07/26 12:43:00;;;;;;;0.50;0.50;;;18.30;99.90;;;;;;5095291;28;20178;-57
2022/07/26 12:45:28;;;;;;;0.47;0.47;;;18.30;99.90;;;;;;5095231;28;20174;-58
2022/07/26 12:47:56;;;;;;;0.38;0.38;;;18.30;99.90;;;;;;5094930;28;20508;-58
2022/07/26 12:50:25;;;;;;;0.40;0.40;;;18.40;99.90;;;;;;5095023;28;20185;-58
2022/07/26 12:52:57;;;;;;;0.50;0.50;;;18.50;99.90;;;;;;5095135;28;20543;-57